Terminal Aerodrome Forecast
Issued by NWS

Home | Current Version | Previous Version | Text Only | Print | Product List | Glossary On
Versions: 1 2 3 4 5 6 7 8 9 10 11 12
280
FTUS43 KSGF 250520
TAFBBG
TAF
KBBG 250520Z 2506/2606 26008KT P6SM BKN250
     FM250900 30007KT P6SM BKN120
     FM251400 36006KT P6SM FEW250
     FM260300 00000KT P6SM FEW250=

USA.gov is the U.S. government's official web portal to all federal, state and local government web resources and services.